• Join FlightAware (Why Join?)
  • Login
  • US Flag GB Flag 
05:47 EDT


 

Airport Tracker/Info


-or-


 

Live Flight TrackerFlight Track Log ✈ EJA929 ✈ 10-Apr-2013 ✈ KAGS - KPBI

Flight Track Log - Related Links

Times and Time Zones

All times are in EDT time to prevent confusion due to time zone crossing. See the EJA929 flight status page for this flight to view local times or setup timezone preferences in your user account.

Time Position Orientation Groundspeed Altitude Reporting Facility
EDT Latitude Longitude Course Direction KTS MPH feet Rate Location/Type
12:35 33.3467 -82.0817 185° South 212 244 5,000  Level Atlanta Center
12:36 33.3353 -82.1617 260° West 236 272 5,100 1,560 Climbing Atlanta Center
12:37 33.3028 -82.2194 236° Southwest 248 285 8,200 3,240 Climbing Atlanta Center
12:38 33.2428 -82.2581 208° Southwest 224 258 11,600 2,940 Climbing Atlanta Center
12:39 33.1764 -82.2942 204° Southwest 244 281 14,100 1,680 Climbing Atlanta Center
12:40 32.6513 -82.4365 185° South  Level FlightAware Approximate
12:40 33.0936 -82.3428 206° Southwest 286 329 15,000  Level Atlanta Center
12:41 32.9961 -82.3819 199° South 338 389 16,500 1,500 Climbing Atlanta Center
12:42 32.8922 -82.4161 195° South 362 417 18,100 1,740 Climbing Atlanta Center
12:43 32.7839 -82.4378 190° South 381 438 20,000 1,860 Climbing Atlanta Center
12:44 32.6692 -82.4472 184° South 399 459 21,900 1,920 Climbing Atlanta Center
12:45 32.5544 -82.4519 182° South 413 475 23,900 1,800 Climbing Atlanta Center
12:47 32.2994 -82.4650 182° South 433 498 27,400 1,380 Climbing Jacksonville Center
12:48 32.1681 -82.4728 183° South 448 516 28,100 300 Climbing Jacksonville Center
12:49 32.0303 -82.4808 183° South 477 549 28,100 240 Level Jacksonville Center
12:50 31.8883 -82.4889 183° South 500 575 28,600 960 Climbing Jacksonville Center
12:51 31.7483 -82.4967 183° South 513 590 30,100 2,700 Climbing Jacksonville Center
12:52 31.6086 -82.5047 183° South 513 590 34,000 900 Climbing Jacksonville Center
12:53 31.4708 -82.5125 183° South 507 583 32,000 -1,020 Descending Jacksonville Center
12:54 31.3456 -82.5203 183° South 500 575 32,000  Level Jacksonville Center
12:55 31.2097 -82.5258 182° South 494 568 32,000  Level Jacksonville Center
12:56 31.0742 -82.5311 182° South 494 568 32,000  Level Jacksonville Center
12:57 30.9342 -82.5367 182° South 499 574 32,000  Level Jacksonville Center
12:58 30.7942 -82.5444 183° South 499 574 32,000  Level Jacksonville Center
12:59 30.6586 -82.5497 182° South 499 574 32,000  Level Jacksonville Center
13:00 30.5186 -82.5550 182° South 499 574 32,000 120 Level Jacksonville Center
13:01 30.3831 -82.5458 177° South 494 568 32,300 360 Climbing Jacksonville Center
13:02 30.2408 -82.5344 176° South 499 574 32,800 300 Climbing Jacksonville Center
13:03 30.1011 -82.5228 176° South 499 574 33,000 60 Climbing Jacksonville Center
13:04 29.9486 -82.5089 175° South 499 574 33,000  Level Jacksonville Center
13:05 29.8253 -82.5000 176° South 499 574 33,000  Level Jacksonville Center
13:06 29.6833 -82.4908 177° South 499 574 33,000  Level Jacksonville Center
13:07 29.5456 -82.4794 176° South 499 574 33,000  Level Jacksonville Center
13:08 29.4036 -82.4683 176° South 499 574 33,000  Level Jacksonville Center
13:09 29.2678 -82.4594 177° South 499 574 33,000  Level Jacksonville Center
13:10 29.1281 -82.4481 176° South 499 574 33,000  Level Jacksonville Center
13:11 28.9922 -82.4344 175° South 499 574 33,000  Level Jacksonville Center
13:12 28.8522 -82.4136 173° South 499 574 33,000  Level Jacksonville Center
13:13 28.7144 -82.3978 174° South 499 574 33,000  Level Jacksonville Center
13:15 28.4558 -82.3669 174° South 496 571 33,000  Level Miami Center
13:16 28.3167 -82.3461 172° South 496 571 33,000  Level Miami Center
13:17 28.1756 -82.3275 173° South 507 583 33,000  Level Miami Center
13:18 28.0325 -82.3086 173° South 507 583 33,000  Level Miami Center
13:19 27.8964 -82.2622 163° South 513 590 33,000 -780 Level Miami Center
13:20 27.7419 -82.2081 163° South 522 601 31,500 -1,620 Descending Miami Center
13:21 27.6122 -82.1622 163° South 538 619 29,800 -1,680 Descending Miami Center
13:22 27.4722 -82.1136 163° South 528 608 28,200 -1,800 Descending Miami Center
13:23 27.3197 -82.0600 163° South 528 608 26,300 -1,800 Descending Miami Center
13:24 27.1856 -82.0189 165° South 515 593 24,700 -1,200 Descending Miami Center
13:25 27.0578 -81.9689 161° South 499 574 24,000 -360 Descending Miami Center
13:26 26.9442 -81.8800 145° Southeast 486 559 24,000 -840 Level Miami Center
13:27 26.8319 -81.7983 147° Southeast 486 559 22,400 -2,280 Descending Miami Center
13:28 26.7392 -81.7014 137° Southeast 466 536 19,500 -1,740 Descending Miami Center
13:29 26.7061 -81.5700 106° East 437 503 19,000 -300 Descending Miami Center
13:30 26.7331 -81.4456 76° East 424 488 19,000 -600 Level Miami Center
13:31 26.7622 -81.3094 76° East 435 501 17,900 -2,340 Descending Miami Center
13:32 26.7875 -81.1617 79° East 442 509 14,400 -3,300 Descending Miami Center
13:33 26.8078 -81.0389 79° East 425 489 11,300 -2,220 Descending Miami Center
13:34 26.8275 -80.9372 78° East 371 427 10,000 -660 Descending Miami Center
13:35 26.8358 -80.8583 83° East 302 348 10,000  Level Miami Center
13:36 26.8108 -80.7808 110° East 239 275 10,000 -360 Level Miami Center
13:37 26.7875 -80.7219 114° Southeast 219 252 9,300 -1,140 Descending Miami Center
13:38 26.7314 -80.7036 164° South 203 234 7,800 -1,500 Descending Miami Center
13:39 26.7100 -80.6519 115° Southeast 170 196 6,400 -1,260 Descending Miami Center
13:40 26.7053 -80.5914 95° East 170 196 5,300 -1,080 Descending Miami Center
13:41 26.7025 -80.5378 93° East 191 220 4,300 -1,080 Descending Miami Center
13:42 26.6978 -80.4725 95° East 191 220 3,200 -1,200 Descending Miami Center
13:43 26.6950 -80.4142 93° East 199 229 2,000 -1,200 Descending Miami Center
13:45 26.6051 -80.2436 119° Southeast  Level FlightAware Approximate
13:52 26.6667 -80.0833 50° Northeast  Level FlightAware Approximate
13:53 26.6832 -80.0956 50° Northeast  Level Estimated
13:54 26.6832 -80.0956 50° Northeast  Level Estimated
13:55 26.6832 -80.0956 50° Northeast  Level Estimated
13:56 26.6832 -80.0956 50° Northeast  Level Estimated
13:57 26.6832 -80.0956 50° Northeast  Level Estimated
13:58 26.6832 -80.0956 50° Northeast  Level Estimated